sensor_id;sensor_type;location;lat;lon;timestamp;temperature;humidity
3542;DHT22;1785;47.388;8.538;2023-10-31T00:00:04;13.50;99.90
3542;DHT22;1785;47.388;8.538;2023-10-31T00:02:30;13.40;99.90
3542;DHT22;1785;47.388;8.538;2023-10-31T00:04:57;13.20;99.90
3542;DHT22;1785;47.388;8.538;2023-10-31T00:07:23;13.00;99.90
3542;DHT22;1785;47.388;8.538;2023-10-31T00:09:49;12.90;99.90
3542;DHT22;1785;47.388;8.538;2023-10-31T00:12:15;13.00;99.90
3542;DHT22;1785;47.388;8.538;2023-10-31T00:14:41;12.90;99.90
3542;DHT22;1785;47.388;8.538;2023-10-31T00:17:07;13.00;99.90
3542;DHT22;1785;47.388;8.538;2023-10-31T00:19:33;13.20;99.90
3542;DHT22;1785;47.388;8.538;2023-10-31T00:21:59;13.30;99.90
3542;DHT22;1785;47.388;8.538;2023-10-31T00:24:26;13.30;99.90
3542;DHT22;1785;47.388;8.538;2023-10-31T00:26:52;13.20;99.90
3542;DHT22;1785;47.388;8.538;2023-10-31T00:29:18;13.20;99.90
3542;DHT22;1785;47.388;8.538;2023-10-31T00:31:44;13.20;99.90
3542;DHT22;1785;47.388;8.538;2023-10-31T00:34:11;13.30;99.90
3542;DHT22;1785;47.388;8.538;2023-10-31T00:36:37;13.30;99.90
3542;DHT22;1785;47.388;8.538;2023-10-31T00:39:03;13.20;99.90
3542;DHT22;1785;47.388;8.538;2023-10-31T00:41:30;13.10;99.90
3542;DHT22;1785;47.388;8.538;2023-10-31T00:43:56;13.30;99.90
3542;DHT22;1785;47.388;8.538;2023-10-31T00:46:22;13.30;99.90
3542;DHT22;1785;47.388;8.538;2023-10-31T00:48:48;13.20;99.90
3542;DHT22;1785;47.388;8.538;2023-10-31T00:51:15;13.20;99.90
3542;DHT22;1785;47.388;8.538;2023-10-31T00:53:41;13.30;99.90
3542;DHT22;1785;47.388;8.538;2023-10-31T00:56:07;13.30;99.90
3542;DHT22;1785;47.388;8.538;2023-10-31T00:58:33;13.30;99.90
3542;DHT22;1785;47.388;8.538;2023-10-31T01:00:59;13.40;99.90
3542;DHT22;1785;47.388;8.538;2023-10-31T01:03:25;13.50;99.90
3542;DHT22;1785;47.388;8.538;2023-10-31T01:05:51;13.50;99.90
3542;DHT22;1785;47.388;8.538;2023-10-31T01:08:18;13.40;99.90
3542;DHT22;1785;47.388;8.538;2023-10-31T01:10:45;13.20;99.90
3542;DHT22;1785;47.388;8.538;2023-10-31T01:13:11;13.10;99.90
3542;DHT22;1785;47.388;8.538;2023-10-31T01:15:37;13.10;99.90
3542;DHT22;1785;47.388;8.538;2023-10-31T01:18:03;13.00;99.90
3542;DHT22;1785;47.388;8.538;2023-10-31T01:20:29;13.20;99.90
3542;DHT22;1785;47.388;8.538;2023-10-31T01:22:55;13.40;99.90
3542;DHT22;1785;47.388;8.538;2023-10-31T01:25:22;13.50;99.90
3542;DHT22;1785;47.388;8.538;2023-10-31T01:27:48;13.30;99.90
3542;DHT22;1785;47.388;8.538;2023-10-31T01:30:14;13.30;99.90
3542;DHT22;1785;47.388;8.538;2023-10-31T01:32:40;13.30;99.90
3542;DHT22;1785;47.388;8.538;2023-10-31T01:35:07;13.20;99.90
3542;DHT22;1785;47.388;8.538;2023-10-31T01:37:33;13.10;99.90
3542;DHT22;1785;47.388;8.538;2023-10-31T01:39:59;13.10;99.90
3542;DHT22;1785;47.388;8.538;2023-10-31T01:42:26;13.20;99.90
3542;DHT22;1785;47.388;8.538;2023-10-31T01:44:52;13.00;99.90
3542;DHT22;1785;47.388;8.538;2023-10-31T01:47:18;13.20;99.90
3542;DHT22;1785;47.388;8.538;2023-10-31T01:49:44;13.40;99.90
3542;DHT22;1785;47.388;8.538;2023-10-31T01:52:10;13.30;99.90
3542;DHT22;1785;47.388;8.538;2023-10-31T01:54:36;13.10;99.90
3542;DHT22;1785;47.388;8.538;2023-10-31T01:57:04;12.90;99.90
3542;DHT22;1785;47.388;8.538;2023-10-31T01:59:31;12.90;99.90
3542;DHT22;1785;47.388;8.538;2023-10-31T02:01:57;13.00;99.90
3542;DHT22;1785;47.388;8.538;2023-10-31T02:04:24;13.20;99.90
3542;DHT22;1785;47.388;8.538;2023-10-31T02:06:50;13.20;99.90
3542;DHT22;1785;47.388;8.538;2023-10-31T02:09:17;13.10;99.90
3542;DHT22;1785;47.388;8.538;2023-10-31T02:11:43;13.10;99.90
3542;DHT22;1785;47.388;8.538;2023-10-31T02:14:09;13.20;99.90
3542;DHT22;1785;47.388;8.538;2023-10-31T02:16:35;13.30;99.90
3542;DHT22;1785;47.388;8.538;2023-10-31T02:19:02;13.40;99.90
3542;DHT22;1785;47.388;8.538;2023-10-31T02:21:29;13.40;99.90
3542;DHT22;1785;47.388;8.538;2023-10-31T02:23:57;13.40;99.90
3542;DHT22;1785;47.388;8.538;2023-10-31T02:26:28;13.10;99.90
3542;DHT22;1785;47.388;8.538;2023-10-31T02:28:54;13.00;99.90
3542;DHT22;1785;47.388;8.538;2023-10-31T02:31:21;13.10;99.90
3542;DHT22;1785;47.388;8.538;2023-10-31T02:33:47;13.20;99.90
3542;DHT22;1785;47.388;8.538;2023-10-31T02:36:13;13.20;99.90
3542;DHT22;1785;47.388;8.538;2023-10-31T02:38:39;13.20;99.90
3542;DHT22;1785;47.388;8.538;2023-10-31T02:41:06;13.20;99.90
3542;DHT22;1785;47.388;8.538;2023-10-31T02:43:32;13.30;99.90
3542;DHT22;1785;47.388;8.538;2023-10-31T02:45:58;13.40;99.90
3542;DHT22;1785;47.388;8.538;2023-10-31T02:48:24;13.20;99.90
3542;DHT22;1785;47.388;8.538;2023-10-31T02:50:50;13.30;99.90
3542;DHT22;1785;47.388;8.538;2023-10-31T02:53:17;13.30;99.90
3542;DHT22;1785;47.388;8.538;2023-10-31T02:55:43;13.30;99.90
3542;DHT22;1785;47.388;8.538;2023-10-31T02:58:10;13.10;99.90
3542;DHT22;1785;47.388;8.538;2023-10-31T03:00:36;13.00;99.90
3542;DHT22;1785;47.388;8.538;2023-10-31T03:03:02;13.00;99.90
3542;DHT22;1785;47.388;8.538;2023-10-31T03:05:29;13.10;99.90
3542;DHT22;1785;47.388;8.538;2023-10-31T03:07:55;13.20;99.90
3542;DHT22;1785;47.388;8.538;2023-10-31T03:10:21;13.20;99.90
3542;DHT22;1785;47.388;8.538;2023-10-31T03:12:47;13.20;99.90
3542;DHT22;1785;47.388;8.538;2023-10-31T03:15:14;13.10;99.90
3542;DHT22;1785;47.388;8.538;2023-10-31T03:17:40;13.00;99.90
3542;DHT22;1785;47.388;8.538;2023-10-31T03:20:06;12.90;99.90
3542;DHT22;1785;47.388;8.538;2023-10-31T03:22:34;12.70;99.90
3542;DHT22;1785;47.388;8.538;2023-10-31T03:25:00;12.40;99.90
3542;DHT22;1785;47.388;8.538;2023-10-31T03:27:26;12.40;99.90
3542;DHT22;1785;47.388;8.538;2023-10-31T03:29:53;12.50;99.90
3542;DHT22;1785;47.388;8.538;2023-10-31T03:32:19;12.70;99.90
3542;DHT22;1785;47.388;8.538;2023-10-31T03:34:45;12.80;99.90
3542;DHT22;1785;47.388;8.538;2023-10-31T03:37:11;13.00;99.90
3542;DHT22;1785;47.388;8.538;2023-10-31T03:39:37;12.70;99.90
3542;DHT22;1785;47.388;8.538;2023-10-31T03:42:03;12.70;99.90
3542;DHT22;1785;47.388;8.538;2023-10-31T03:44:31;12.70;99.90
3542;DHT22;1785;47.388;8.538;2023-10-31T03:46:57;12.60;99.90
3542;DHT22;1785;47.388;8.538;2023-10-31T03:49:23;12.70;99.90
3542;DHT22;1785;47.388;8.538;2023-10-31T03:51:49;12.60;99.90
3542;DHT22;1785;47.388;8.538;2023-10-31T03:54:17;12.50;99.90
3542;DHT22;1785;47.388;8.538;2023-10-31T03:56:43;12.20;99.90
3542;DHT22;1785;47.388;8.538;2023-10-31T03:59:10;12.00;99.90
3542;DHT22;1785;47.388;8.538;2023-10-31T04:01:36;11.90;99.90
3542;DHT22;1785;47.388;8.538;2023-10-31T04:04:02;12.00;99.90
3542;DHT22;1785;47.388;8.538;2023-10-31T04:06:29;11.80;99.90
3542;DHT22;1785;47.388;8.538;2023-10-31T04:08:55;12.10;99.90
3542;DHT22;1785;47.388;8.538;2023-10-31T04:11:21;12.00;99.90
3542;DHT22;1785;47.388;8.538;2023-10-31T04:13:47;12.10;99.90
3542;DHT22;1785;47.388;8.538;2023-10-31T04:16:13;12.20;99.90
3542;DHT22;1785;47.388;8.538;2023-10-31T04:18:39;12.30;99.90
3542;DHT22;1785;47.388;8.538;2023-10-31T04:21:05;12.60;99.90
3542;DHT22;1785;47.388;8.538;2023-10-31T04:23:32;12.70;99.90
3542;DHT22;1785;47.388;8.538;2023-10-31T04:25:58;12.90;99.90
3542;DHT22;1785;47.388;8.538;2023-10-31T04:28:24;13.00;99.90
3542;DHT22;1785;47.388;8.538;2023-10-31T04:30:50;13.00;99.90
3542;DHT22;1785;47.388;8.538;2023-10-31T04:33:16;13.00;99.90
3542;DHT22;1785;47.388;8.538;2023-10-31T04:35:43;13.00;99.90
3542;DHT22;1785;47.388;8.538;2023-10-31T04:38:09;13.00;99.90
3542;DHT22;1785;47.388;8.538;2023-10-31T04:40:35;13.00;99.90
3542;DHT22;1785;47.388;8.538;2023-10-31T04:43:01;13.00;99.90
3542;DHT22;1785;47.388;8.538;2023-10-31T04:45:27;13.00;99.90
3542;DHT22;1785;47.388;8.538;2023-10-31T04:47:53;13.10;99.90
3542;DHT22;1785;47.388;8.538;2023-10-31T04:50:19;12.90;99.90
3542;DHT22;1785;47.388;8.538;2023-10-31T04:52:45;12.80;99.90
3542;DHT22;1785;47.388;8.538;2023-10-31T04:55:11;12.90;99.90
3542;DHT22;1785;47.388;8.538;2023-10-31T04:57:38;12.60;99.90
3542;DHT22;1785;47.388;8.538;2023-10-31T05:00:05;12.60;99.90
3542;DHT22;1785;47.388;8.538;2023-10-31T05:02:33;12.70;99.90
3542;DHT22;1785;47.388;8.538;2023-10-31T05:04:59;12.90;99.90
3542;DHT22;1785;47.388;8.538;2023-10-31T05:07:25;13.00;99.90
3542;DHT22;1785;47.388;8.538;2023-10-31T05:09:52;13.00;99.90
3542;DHT22;1785;47.388;8.538;2023-10-31T05:12:18;13.00;99.90
3542;DHT22;1785;47.388;8.538;2023-10-31T05:14:45;12.80;99.90
3542;DHT22;1785;47.388;8.538;2023-10-31T05:17:11;12.60;99.90
3542;DHT22;1785;47.388;8.538;2023-10-31T05:19:37;12.60;99.90
3542;DHT22;1785;47.388;8.538;2023-10-31T05:22:03;12.60;99.90
3542;DHT22;1785;47.388;8.538;2023-10-31T05:24:29;12.60;99.90
3542;DHT22;1785;47.388;8.538;2023-10-31T05:26:57;12.50;99.90
3542;DHT22;1785;47.388;8.538;2023-10-31T05:29:23;12.60;99.90
3542;DHT22;1785;47.388;8.538;2023-10-31T05:31:50;12.80;99.90
3542;DHT22;1785;47.388;8.538;2023-10-31T05:34:16;12.80;99.90
3542;DHT22;1785;47.388;8.538;2023-10-31T05:36:42;12.90;99.90
3542;DHT22;1785;47.388;8.538;2023-10-31T05:39:08;13.00;99.90
3542;DHT22;1785;47.388;8.538;2023-10-31T05:41:35;12.80;99.90
3542;DHT22;1785;47.388;8.538;2023-10-31T05:44:01;12.70;99.90
3542;DHT22;1785;47.388;8.538;2023-10-31T05:46:27;12.80;99.90
3542;DHT22;1785;47.388;8.538;2023-10-31T05:48:54;13.00;99.90
3542;DHT22;1785;47.388;8.538;2023-10-31T05:51:20;13.10;99.90
3542;DHT22;1785;47.388;8.538;2023-10-31T05:53:47;13.10;99.90
3542;DHT22;1785;47.388;8.538;2023-10-31T05:56:14;13.10;99.90
3542;DHT22;1785;47.388;8.538;2023-10-31T05:58:41;12.80;99.90
3542;DHT22;1785;47.388;8.538;2023-10-31T06:01:07;12.70;99.90
3542;DHT22;1785;47.388;8.538;2023-10-31T06:03:34;12.70;99.90
3542;DHT22;1785;47.388;8.538;2023-10-31T06:06:00;12.70;99.90
3542;DHT22;1785;47.388;8.538;2023-10-31T06:08:27;12.50;99.90
3542;DHT22;1785;47.388;8.538;2023-10-31T06:10:54;12.40;99.90
3542;DHT22;1785;47.388;8.538;2023-10-31T06:13:20;12.50;99.90
3542;DHT22;1785;47.388;8.538;2023-10-31T06:15:46;12.60;99.90
3542;DHT22;1785;47.388;8.538;2023-10-31T06:18:12;12.60;99.90
3542;DHT22;1785;47.388;8.538;2023-10-31T06:20:38;12.60;99.90
3542;DHT22;1785;47.388;8.538;2023-10-31T06:23:06;12.80;99.90
3542;DHT22;1785;47.388;8.538;2023-10-31T06:25:32;13.20;99.90
3542;DHT22;1785;47.388;8.538;2023-10-31T06:27:58;13.20;99.90
3542;DHT22;1785;47.388;8.538;2023-10-31T06:30:24;13.30;99.90
3542;DHT22;1785;47.388;8.538;2023-10-31T06:32:51;13.30;99.90
3542;DHT22;1785;47.388;8.538;2023-10-31T06:35:17;13.20;99.90
3542;DHT22;1785;47.388;8.538;2023-10-31T06:37:43;13.00;99.90
3542;DHT22;1785;47.388;8.538;2023-10-31T06:40:10;12.90;99.90
3542;DHT22;1785;47.388;8.538;2023-10-31T06:42:36;12.80;99.90
3542;DHT22;1785;47.388;8.538;2023-10-31T06:45:03;12.70;99.90
3542;DHT22;1785;47.388;8.538;2023-10-31T06:47:30;12.70;99.90
3542;DHT22;1785;47.388;8.538;2023-10-31T06:49:56;12.80;99.90
3542;DHT22;1785;47.388;8.538;2023-10-31T06:52:22;12.80;99.90
3542;DHT22;1785;47.388;8.538;2023-10-31T06:54:48;13.00;99.90
3542;DHT22;1785;47.388;8.538;2023-10-31T06:57:15;13.00;99.90
3542;DHT22;1785;47.388;8.538;2023-10-31T06:59:41;13.10;99.90
3542;DHT22;1785;47.388;8.538;2023-10-31T07:02:08;13.10;99.90
3542;DHT22;1785;47.388;8.538;2023-10-31T07:04:34;12.90;99.90
3542;DHT22;1785;47.388;8.538;2023-10-31T07:07:00;12.90;99.90
3542;DHT22;1785;47.388;8.538;2023-10-31T07:09:27;12.90;99.90
3542;DHT22;1785;47.388;8.538;2023-10-31T07:11:53;12.90;99.90
3542;DHT22;1785;47.388;8.538;2023-10-31T07:14:20;13.00;99.90
3542;DHT22;1785;47.388;8.538;2023-10-31T07:16:47;13.00;99.90
3542;DHT22;1785;47.388;8.538;2023-10-31T07:19:14;12.90;99.90
3542;DHT22;1785;47.388;8.538;2023-10-31T07:21:40;12.90;99.90
3542;DHT22;1785;47.388;8.538;2023-10-31T07:24:07;12.80;99.90
3542;DHT22;1785;47.388;8.538;2023-10-31T07:26:34;12.40;99.90
3542;DHT22;1785;47.388;8.538;2023-10-31T07:29:00;12.10;99.90
3542;DHT22;1785;47.388;8.538;2023-10-31T07:31:27;12.10;99.90
3542;DHT22;1785;47.388;8.538;2023-10-31T07:33:53;12.10;99.90
3542;DHT22;1785;47.388;8.538;2023-10-31T07:36:19;12.10;99.90
3542;DHT22;1785;47.388;8.538;2023-10-31T07:38:45;12.00;99.90
3542;DHT22;1785;47.388;8.538;2023-10-31T07:41:11;12.20;99.90
3542;DHT22;1785;47.388;8.538;2023-10-31T07:43:37;12.30;99.90
3542;DHT22;1785;47.388;8.538;2023-10-31T07:46:04;12.50;99.90
3542;DHT22;1785;47.388;8.538;2023-10-31T07:48:31;12.60;99.90
3542;DHT22;1785;47.388;8.538;2023-10-31T07:50:57;12.80;99.90
3542;DHT22;1785;47.388;8.538;2023-10-31T07:53:23;12.90;99.90
3542;DHT22;1785;47.388;8.538;2023-10-31T07:55:49;13.00;99.90
3542;DHT22;1785;47.388;8.538;2023-10-31T07:58:15;13.00;99.90
3542;DHT22;1785;47.388;8.538;2023-10-31T08:00:42;13.00;99.90
3542;DHT22;1785;47.388;8.538;2023-10-31T08:03:08;12.70;99.90
3542;DHT22;1785;47.388;8.538;2023-10-31T08:05:35;12.80;99.90
3542;DHT22;1785;47.388;8.538;2023-10-31T08:08:01;12.70;99.90
3542;DHT22;1785;47.388;8.538;2023-10-31T08:10:27;12.60;99.90
3542;DHT22;1785;47.388;8.538;2023-10-31T08:12:53;12.70;99.90
3542;DHT22;1785;47.388;8.538;2023-10-31T08:15:19;12.60;99.90
3542;DHT22;1785;47.388;8.538;2023-10-31T08:17:45;12.60;99.90
3542;DHT22;1785;47.388;8.538;2023-10-31T08:20:12;12.60;99.90
3542;DHT22;1785;47.388;8.538;2023-10-31T08:22:39;12.70;99.90
3542;DHT22;1785;47.388;8.538;2023-10-31T08:25:08;12.80;99.90
3542;DHT22;1785;47.388;8.538;2023-10-31T08:27:34;12.90;99.90
3542;DHT22;1785;47.388;8.538;2023-10-31T08:30:00;13.00;99.90
3542;DHT22;1785;47.388;8.538;2023-10-31T08:32:26;13.00;99.90
3542;DHT22;1785;47.388;8.538;2023-10-31T08:34:52;13.40;99.90
3542;DHT22;1785;47.388;8.538;2023-10-31T08:37:19;13.00;99.90
3542;DHT22;1785;47.388;8.538;2023-10-31T08:39:46;12.90;99.90
3542;DHT22;1785;47.388;8.538;2023-10-31T08:42:12;12.80;99.90
3542;DHT22;1785;47.388;8.538;2023-10-31T08:44:40;12.90;99.90
3542;DHT22;1785;47.388;8.538;2023-10-31T08:47:06;12.60;99.90
3542;DHT22;1785;47.388;8.538;2023-10-31T08:49:32;12.60;99.90
3542;DHT22;1785;47.388;8.538;2023-10-31T08:51:58;12.80;99.90
3542;DHT22;1785;47.388;8.538;2023-10-31T08:54:27;13.00;99.90
3542;DHT22;1785;47.388;8.538;2023-10-31T08:56:54;12.70;99.90
3542;DHT22;1785;47.388;8.538;2023-10-31T08:59:20;12.70;99.90
3542;DHT22;1785;47.388;8.538;2023-10-31T09:01:46;12.70;99.90
3542;DHT22;1785;47.388;8.538;2023-10-31T09:04:12;12.80;99.90
3542;DHT22;1785;47.388;8.538;2023-10-31T09:06:38;12.60;99.90
3542;DHT22;1785;47.388;8.538;2023-10-31T09:09:04;12.80;99.90
3542;DHT22;1785;47.388;8.538;2023-10-31T09:11:30;12.90;99.90
3542;DHT22;1785;47.388;8.538;2023-10-31T09:13:57;13.00;99.90
3542;DHT22;1785;47.388;8.538;2023-10-31T09:16:23;12.90;99.90
3542;DHT22;1785;47.388;8.538;2023-10-31T09:18:49;13.00;99.90
3542;DHT22;1785;47.388;8.538;2023-10-31T09:21:15;12.90;99.90
3542;DHT22;1785;47.388;8.538;2023-10-31T09:23:42;13.00;99.90
3542;DHT22;1785;47.388;8.538;2023-10-31T09:26:08;13.20;99.90
3542;DHT22;1785;47.388;8.538;2023-10-31T09:28:35;13.30;99.90
3542;DHT22;1785;47.388;8.538;2023-10-31T09:31:03;13.40;99.90
3542;DHT22;1785;47.388;8.538;2023-10-31T09:33:29;13.30;99.90
3542;DHT22;1785;47.388;8.538;2023-10-31T09:35:55;13.10;99.90
3542;DHT22;1785;47.388;8.538;2023-10-31T09:38:21;13.10;99.90
3542;DHT22;1785;47.388;8.538;2023-10-31T09:40:47;13.00;99.90
3542;DHT22;1785;47.388;8.538;2023-10-31T09:43:13;12.90;99.90
3542;DHT22;1785;47.388;8.538;2023-10-31T09:45:39;12.90;99.90
3542;DHT22;1785;47.388;8.538;2023-10-31T09:48:07;12.90;99.90
3542;DHT22;1785;47.388;8.538;2023-10-31T09:50:34;12.90;99.90
3542;DHT22;1785;47.388;8.538;2023-10-31T09:53:01;13.00;99.90
3542;DHT22;1785;47.388;8.538;2023-10-31T09:55:29;13.20;99.90
3542;DHT22;1785;47.388;8.538;2023-10-31T09:57:55;13.10;99.90
3542;DHT22;1785;47.388;8.538;2023-10-31T10:00:22;13.10;99.90
3542;DHT22;1785;47.388;8.538;2023-10-31T10:02:49;13.30;99.90
3542;DHT22;1785;47.388;8.538;2023-10-31T10:05:16;13.30;99.90
3542;DHT22;1785;47.388;8.538;2023-10-31T10:07:43;13.30;99.90
3542;DHT22;1785;47.388;8.538;2023-10-31T10:10:10;13.40;99.90
3542;DHT22;1785;47.388;8.538;2023-10-31T10:12:36;13.40;99.90
3542;DHT22;1785;47.388;8.538;2023-10-31T10:15:03;13.40;99.90
3542;DHT22;1785;47.388;8.538;2023-10-31T10:17:29;13.40;99.90
3542;DHT22;1785;47.388;8.538;2023-10-31T10:20:06;13.40;99.90
3542;DHT22;1785;47.388;8.538;2023-10-31T10:22:39;13.50;99.90
3542;DHT22;1785;47.388;8.538;2023-10-31T10:25:18;13.50;99.90
3542;DHT22;1785;47.388;8.538;2023-10-31T10:27:45;13.50;99.90
3542;DHT22;1785;47.388;8.538;2023-10-31T10:30:13;13.60;99.90
3542;DHT22;1785;47.388;8.538;2023-10-31T10:32:39;13.80;99.90
3542;DHT22;1785;47.388;8.538;2023-10-31T10:35:06;13.70;99.90
3542;DHT22;1785;47.388;8.538;2023-10-31T10:37:35;13.40;99.90
3542;DHT22;1785;47.388;8.538;2023-10-31T10:40:05;13.40;99.90
3542;DHT22;1785;47.388;8.538;2023-10-31T10:42:33;13.40;99.90
3542;DHT22;1785;47.388;8.538;2023-10-31T10:45:03;13.50;99.90
3542;DHT22;1785;47.388;8.538;2023-10-31T10:47:30;13.60;99.90
3542;DHT22;1785;47.388;8.538;2023-10-31T10:49:59;13.70;99.90
3542;DHT22;1785;47.388;8.538;2023-10-31T10:52:29;13.80;99.90
3542;DHT22;1785;47.388;8.538;2023-10-31T10:55:01;14.10;99.90
3542;DHT22;1785;47.388;8.538;2023-10-31T10:57:37;13.90;99.90
3542;DHT22;1785;47.388;8.538;2023-10-31T11:00:05;13.80;99.90
3542;DHT22;1785;47.388;8.538;2023-10-31T11:02:36;13.70;99.90
3542;DHT22;1785;47.388;8.538;2023-10-31T11:05:03;13.60;99.90
3542;DHT22;1785;47.388;8.538;2023-10-31T11:07:31;13.60;99.90
3542;DHT22;1785;47.388;8.538;2023-10-31T11:09:59;13.60;99.90
3542;DHT22;1785;47.388;8.538;2023-10-31T11:12:28;13.80;99.90
3542;DHT22;1785;47.388;8.538;2023-10-31T11:14:55;13.70;99.90
3542;DHT22;1785;47.388;8.538;2023-10-31T11:17:29;13.70;99.90
3542;DHT22;1785;47.388;8.538;2023-10-31T11:19:56;13.70;99.90
3542;DHT22;1785;47.388;8.538;2023-10-31T11:22:22;13.60;99.90
3542;DHT22;1785;47.388;8.538;2023-10-31T11:24:49;13.60;99.90
3542;DHT22;1785;47.388;8.538;2023-10-31T11:27:17;13.90;99.90
3542;DHT22;1785;47.388;8.538;2023-10-31T11:29:44;14.00;99.90
3542;DHT22;1785;47.388;8.538;2023-10-31T11:32:10;13.90;99.90
3542;DHT22;1785;47.388;8.538;2023-10-31T11:34:38;13.90;99.90
3542;DHT22;1785;47.388;8.538;2023-10-31T11:37:24;13.80;99.90
3542;DHT22;1785;47.388;8.538;2023-10-31T11:40:15;13.80;99.90
3542;DHT22;1785;47.388;8.538;2023-10-31T11:42:43;13.80;99.90
3542;DHT22;1785;47.388;8.538;2023-10-31T11:45:09;13.70;99.90
3542;DHT22;1785;47.388;8.538;2023-10-31T11:47:46;13.70;99.90
3542;DHT22;1785;47.388;8.538;2023-10-31T11:50:12;13.70;99.90
3542;DHT22;1785;47.388;8.538;2023-10-31T11:52:38;13.70;99.90
3542;DHT22;1785;47.388;8.538;2023-10-31T11:55:07;13.60;99.90
3542;DHT22;1785;47.388;8.538;2023-10-31T11:57:34;13.50;99.90
3542;DHT22;1785;47.388;8.538;2023-10-31T12:00:01;13.40;99.90
3542;DHT22;1785;47.388;8.538;2023-10-31T12:02:27;13.50;99.90
3542;DHT22;1785;47.388;8.538;2023-10-31T12:05:07;13.70;99.90
3542;DHT22;1785;47.388;8.538;2023-10-31T12:07:41;13.50;99.90
3542;DHT22;1785;47.388;8.538;2023-10-31T12:10:08;13.60;99.90
3542;DHT22;1785;47.388;8.538;2023-10-31T12:12:34;13.70;99.90
3542;DHT22;1785;47.388;8.538;2023-10-31T12:15:05;13.70;99.90
3542;DHT22;1785;47.388;8.538;2023-10-31T12:17:32;13.70;99.90
3542;DHT22;1785;47.388;8.538;2023-10-31T12:19:58;13.80;99.90
3542;DHT22;1785;47.388;8.538;2023-10-31T12:22:28;13.80;99.90
3542;DHT22;1785;47.388;8.538;2023-10-31T12:25:00;13.50;99.90
3542;DHT22;1785;47.388;8.538;2023-10-31T12:27:41;13.40;99.90
3542;DHT22;1785;47.388;8.538;2023-10-31T12:30:10;13.70;99.90
3542;DHT22;1785;47.388;8.538;2023-10-31T12:32:36;13.90;99.90
3542;DHT22;1785;47.388;8.538;2023-10-31T12:35:02;13.90;99.90
3542;DHT22;1785;47.388;8.538;2023-10-31T12:37:29;13.80;99.90
3542;DHT22;1785;47.388;8.538;2023-10-31T12:39:56;13.80;99.90
3542;DHT22;1785;47.388;8.538;2023-10-31T12:42:22;13.80;99.90
3542;DHT22;1785;47.388;8.538;2023-10-31T12:44:48;14.00;99.90
3542;DHT22;1785;47.388;8.538;2023-10-31T12:47:21;13.90;99.90
3542;DHT22;1785;47.388;8.538;2023-10-31T12:49:48;13.80;99.90
3542;DHT22;1785;47.388;8.538;2023-10-31T12:52:14;13.60;99.90
3542;DHT22;1785;47.388;8.538;2023-10-31T12:54:40;13.60;99.90
3542;DHT22;1785;47.388;8.538;2023-10-31T12:57:07;13.60;99.90
3542;DHT22;1785;47.388;8.538;2023-10-31T12:59:36;13.50;99.90
3542;DHT22;1785;47.388;8.538;2023-10-31T13:02:03;13.60;99.90
3542;DHT22;1785;47.388;8.538;2023-10-31T13:04:31;13.80;99.90
3542;DHT22;1785;47.388;8.538;2023-10-31T13:06:59;13.90;99.90
3542;DHT22;1785;47.388;8.538;2023-10-31T13:09:28;13.80;99.90
3542;DHT22;1785;47.388;8.538;2023-10-31T13:11:57;13.70;99.90
3542;DHT22;1785;47.388;8.538;2023-10-31T13:14:23;13.70;99.90
3542;DHT22;1785;47.388;8.538;2023-10-31T13:16:49;13.70;99.90
3542;DHT22;1785;47.388;8.538;2023-10-31T13:19:15;13.70;99.90
3542;DHT22;1785;47.388;8.538;2023-10-31T13:21:42;13.80;99.90
3542;DHT22;1785;47.388;8.538;2023-10-31T13:24:08;13.80;99.90
3542;DHT22;1785;47.388;8.538;2023-10-31T13:26:35;13.90;99.90
3542;DHT22;1785;47.388;8.538;2023-10-31T13:29:01;13.90;99.90
3542;DHT22;1785;47.388;8.538;2023-10-31T13:31:27;13.90;99.90
3542;DHT22;1785;47.388;8.538;2023-10-31T13:33:53;14.00;99.90
3542;DHT22;1785;47.388;8.538;2023-10-31T13:36:19;13.90;99.90
3542;DHT22;1785;47.388;8.538;2023-10-31T13:38:46;13.90;99.90
3542;DHT22;1785;47.388;8.538;2023-10-31T13:41:13;13.90;99.90
3542;DHT22;1785;47.388;8.538;2023-10-31T13:43:39;14.00;99.90
3542;DHT22;1785;47.388;8.538;2023-10-31T13:46:06;14.00;99.90
3542;DHT22;1785;47.388;8.538;2023-10-31T13:48:32;14.00;99.90
3542;DHT22;1785;47.388;8.538;2023-10-31T13:50:58;14.10;99.90
3542;DHT22;1785;47.388;8.538;2023-10-31T13:53:24;14.10;99.90
3542;DHT22;1785;47.388;8.538;2023-10-31T13:55:50;14.10;99.90
3542;DHT22;1785;47.388;8.538;2023-10-31T13:58:16;14.20;99.90
3542;DHT22;1785;47.388;8.538;2023-10-31T14:00:43;14.20;99.90
3542;DHT22;1785;47.388;8.538;2023-10-31T14:03:10;14.20;99.90
3542;DHT22;1785;47.388;8.538;2023-10-31T14:05:36;14.00;99.90
3542;DHT22;1785;47.388;8.538;2023-10-31T14:08:04;14.10;99.90
3542;DHT22;1785;47.388;8.538;2023-10-31T14:10:31;13.90;99.90
3542;DHT22;1785;47.388;8.538;2023-10-31T14:12:58;13.70;99.90
3542;DHT22;1785;47.388;8.538;2023-10-31T14:15:24;13.60;99.90
3542;DHT22;1785;47.388;8.538;2023-10-31T14:17:50;13.50;99.90
3542;DHT22;1785;47.388;8.538;2023-10-31T14:20:17;13.60;99.90
3542;DHT22;1785;47.388;8.538;2023-10-31T14:22:47;13.80;99.90
3542;DHT22;1785;47.388;8.538;2023-10-31T14:25:13;13.80;99.90
3542;DHT22;1785;47.388;8.538;2023-10-31T14:27:39;13.80;99.90
3542;DHT22;1785;47.388;8.538;2023-10-31T14:30:07;13.80;99.90
3542;DHT22;1785;47.388;8.538;2023-10-31T14:32:34;13.50;99.90
3542;DHT22;1785;47.388;8.538;2023-10-31T14:35:00;13.50;99.90
3542;DHT22;1785;47.388;8.538;2023-10-31T14:37:26;13.40;99.90
3542;DHT22;1785;47.388;8.538;2023-10-31T14:39:53;13.30;99.90
3542;DHT22;1785;47.388;8.538;2023-10-31T14:42:19;13.40;99.90
3542;DHT22;1785;47.388;8.538;2023-10-31T14:44:46;13.40;99.90
3542;DHT22;1785;47.388;8.538;2023-10-31T14:47:13;13.20;99.90
3542;DHT22;1785;47.388;8.538;2023-10-31T14:49:39;13.30;99.90
3542;DHT22;1785;47.388;8.538;2023-10-31T14:52:05;13.40;99.90
3542;DHT22;1785;47.388;8.538;2023-10-31T14:54:33;13.30;99.90
3542;DHT22;1785;47.388;8.538;2023-10-31T14:57:01;13.20;99.90
3542;DHT22;1785;47.388;8.538;2023-10-31T14:59:27;13.20;99.90
3542;DHT22;1785;47.388;8.538;2023-10-31T15:01:53;13.30;99.90
3542;DHT22;1785;47.388;8.538;2023-10-31T15:04:20;13.30;99.90
3542;DHT22;1785;47.388;8.538;2023-10-31T15:06:46;13.30;99.90
3542;DHT22;1785;47.388;8.538;2023-10-31T15:09:12;13.10;99.90
3542;DHT22;1785;47.388;8.538;2023-10-31T15:11:38;13.10;99.90
3542;DHT22;1785;47.388;8.538;2023-10-31T15:14:04;13.10;99.90
3542;DHT22;1785;47.388;8.538;2023-10-31T15:16:30;13.00;99.90
3542;DHT22;1785;47.388;8.538;2023-10-31T15:18:57;12.90;99.90
3542;DHT22;1785;47.388;8.538;2023-10-31T15:21:24;13.00;99.90
3542;DHT22;1785;47.388;8.538;2023-10-31T15:23:50;13.10;99.90
3542;DHT22;1785;47.388;8.538;2023-10-31T15:26:16;13.20;99.90
3542;DHT22;1785;47.388;8.538;2023-10-31T15:28:43;13.20;99.90
3542;DHT22;1785;47.388;8.538;2023-10-31T15:31:09;12.90;99.90
3542;DHT22;1785;47.388;8.538;2023-10-31T15:33:35;12.90;99.90
3542;DHT22;1785;47.388;8.538;2023-10-31T15:36:01;12.80;99.90
3542;DHT22;1785;47.388;8.538;2023-10-31T15:38:28;12.80;99.90
3542;DHT22;1785;47.388;8.538;2023-10-31T15:40:54;12.80;99.90
3542;DHT22;1785;47.388;8.538;2023-10-31T15:43:20;12.70;99.90
3542;DHT22;1785;47.388;8.538;2023-10-31T15:45:46;12.80;99.90
3542;DHT22;1785;47.388;8.538;2023-10-31T15:48:12;13.10;99.90
3542;DHT22;1785;47.388;8.538;2023-10-31T15:50:39;13.00;99.90
3542;DHT22;1785;47.388;8.538;2023-10-31T15:53:06;13.00;99.90
3542;DHT22;1785;47.388;8.538;2023-10-31T15:55:33;13.10;99.90
3542;DHT22;1785;47.388;8.538;2023-10-31T15:57:59;13.20;99.90